Time;durP1;ratioP1;P1;durP2;ratioP2;P2;SDS_P1;SDS_P2;PMS_P1;PMS_P2;Temp;Humidity;BMP_temperature;BMP_pressure;BME280_temperature;BME280_humidity;BME280_pressure;Samples;Min_cycle;Max_cycle;Signal;HPM_P1;HPM_P2
2021/01/23 00:00:09;;;;;;;2.45;2.35;;;;;;;-146.29;75.99;53928.66;4420267;32;20198;-72
2021/01/23 00:02:35;;;;;;;1.50;1.50;;;;;;;-146.29;76.10;53932.72;4426175;32;20575;-72
2021/01/23 00:05:00;;;;;;;1.50;1.50;;;;;;;-146.29;76.03;53920.53;4425733;32;20234;-74
2021/01/23 00:07:26;;;;;;;1.80;1.80;;;;;;;-146.29;76.20;53910.37;4423003;32;20172;-74
2021/01/23 00:09:51;;;;;;;1.70;1.70;;;;;;;-146.29;76.35;53926.62;4426452;32;20502;-72
2021/01/23 00:12:17;;;;;;;1.95;1.85;;;;;;;-146.29;76.38;53946.91;4426304;32;20226;-73
2021/01/23 00:14:42;;;;;;;1.60;1.60;;;;;;;-146.29;76.31;53930.69;4432885;32;20067;-73
2021/01/23 00:17:07;;;;;;;1.60;1.60;;;;;;;-146.29;76.23;53971.28;4427640;32;20679;-72
2021/01/23 00:19:33;;;;;;;1.40;1.40;;;;;;;-146.29;76.17;53922.56;4434312;32;20167;-72
2021/01/23 00:21:58;;;;;;;1.50;1.50;;;;;;;-146.29;76.22;53877.91;4422482;32;20079;-73
2021/01/23 00:24:23;;;;;;;1.37;1.37;;;;;;;-146.29;76.49;53904.28;4431071;32;20133;-73
2021/01/23 00:26:49;;;;;;;1.50;1.50;;;;;;;-146.29;76.38;53902.28;4425724;32;20091;-72
2021/01/23 00:29:14;;;;;;;1.30;1.30;;;;;;;-146.29;76.70;53886.03;4430855;32;20355;-73
2021/01/23 00:31:40;;;;;;;1.40;1.40;;;;;;;-146.29;76.84;53918.50;4428020;32;20203;-73
2021/01/23 00:34:06;;;;;;;1.30;1.30;;;;;;;-146.29;77.01;53950.97;4439976;32;20106;-73
2021/01/23 00:36:31;;;;;;;2.08;1.98;;;;;;;-146.29;76.96;53914.44;4430557;32;20106;-73
2021/01/23 00:38:57;;;;;;;1.40;1.40;;;;;;;-146.29;77.07;53957.06;4445806;32;20094;-73
2021/01/23 00:41:23;;;;;;;1.75;1.75;;;;;;;-146.29;76.96;53908.34;4431755;32;20059;-73
2021/01/23 00:43:48;;;;;;;1.30;1.30;;;;;;;-146.29;76.96;53902.28;4434800;32;20110;-73
2021/01/23 00:46:13;;;;;;;1.92;1.83;;;;;;;-146.29;77.20;53938.81;4433429;32;20075;-73
2021/01/23 00:48:39;;;;;;;1.40;1.40;;;;;;;-146.29;77.23;53922.56;4432200;32;20087;-73
2021/01/23 00:51:04;;;;;;;1.60;1.50;;;;;;;-146.29;77.28;53906.31;4428773;32;20048;-73
2021/01/23 00:53:30;;;;;;;1.60;1.60;;;;;;;-146.29;77.28;53888.06;4433702;32;20117;-73
2021/01/23 00:55:55;;;;;;;1.40;1.40;;;;;;;-146.29;77.55;53910.37;4430975;32;20101;-73
2021/01/23 00:58:20;;;;;;;1.30;1.30;;;;;;;-146.29;77.81;53932.72;4442522;32;20083;-74
2021/01/23 01:00:46;;;;;;;1.30;1.30;;;;;;;-146.29;77.81;53928.66;4428953;32;20079;-73
2021/01/23 01:03:11;;;;;;;1.30;1.30;;;;;;;-146.29;77.67;53912.41;4432545;32;20083;-72
2021/01/23 01:05:37;;;;;;;1.40;1.40;;;;;;;-146.29;77.89;53898.22;4441258;32;20064;-73
2021/01/23 01:08:02;;;;;;;1.40;1.40;;;;;;;-146.29;77.80;53892.12;4428660;31;20075;-73
2021/01/23 01:10:27;;;;;;;1.30;1.30;;;;;;;-146.29;77.82;53867.75;4432628;32;20545;-73
2021/01/23 01:12:53;;;;;;;1.60;1.60;;;;;;;-146.29;77.54;53928.66;4442345;32;20068;-74
2021/01/23 01:15:18;;;;;;;1.40;1.40;;;;;;;-146.29;77.61;53938.81;4432772;32;20082;-73
2021/01/23 01:17:44;;;;;;;1.40;1.40;;;;;;;-146.29;77.53;53987.50;4443084;32;20435;-73
2021/01/23 01:20:09;;;;;;;2.35;2.25;;;;;;;-146.29;77.38;53942.87;4441398;32;20075;-72
2021/01/23 01:22:35;;;;;;;1.40;1.40;;;;;;;-146.29;77.52;53932.72;4430988;32;20082;-72
2021/01/23 01:25:01;;;;;;;1.27;1.27;;;;;;;-146.29;77.56;53898.22;4444076;32;20129;-72
2021/01/23 01:27:26;;;;;;;1.52;1.52;;;;;;;-146.29;77.68;53912.41;4432208;32;20095;-72
2021/01/23 01:29:52;;;;;;;1.30;1.30;;;;;;;-146.29;77.45;53948.94;4429769;32;20695;-72
2021/01/23 01:32:17;;;;;;;1.40;1.40;;;;;;;-146.29;77.38;53892.12;4433552;32;20103;-72
2021/01/23 01:34:43;;;;;;;1.50;1.50;;;;;;;-146.29;77.35;53918.50;4427615;32;20074;-72
2021/01/23 01:37:08;;;;;;;1.30;1.30;;;;;;;-146.29;77.35;53946.91;4443018;32;20312;-72
2021/01/23 01:39:33;;;;;;;1.33;1.33;;;;;;;-146.29;77.34;53938.81;4433226;32;20325;-72
2021/01/23 01:42:01;;;;;;;1.60;1.60;;;;;;;-146.29;77.24;53944.87;4429094;32;20071;-72
2021/01/23 01:44:27;;;;;;;1.70;1.60;;;;;;;-146.29;77.26;53926.62;4441619;32;20087;-72
2021/01/23 01:46:52;;;;;;;1.40;1.40;;;;;;;-146.29;77.00;53914.44;4432146;32;20124;-72
2021/01/23 01:49:18;;;;;;;1.27;1.27;;;;;;;-146.29;77.14;53953.00;4434006;32;20056;-72
2021/01/23 01:51:43;;;;;;;1.50;1.50;;;;;;;-146.29;76.99;53910.37;4433907;32;20629;-72
2021/01/23 01:54:09;;;;;;;1.50;1.50;;;;;;;-146.29;76.89;53906.31;4430224;32;20071;-72
2021/01/23 01:56:34;;;;;;;1.40;1.40;;;;;;;-146.29;77.03;53906.31;4439213;32;20075;-74
2021/01/23 01:59:00;;;;;;;1.40;1.40;;;;;;;-146.29;76.78;53930.69;4434377;32;20106;-73
2021/01/23 02:01:25;;;;;;;1.67;1.67;;;;;;;-146.29;76.98;53946.91;4429856;32;20128;-73
2021/01/23 02:03:59;;;;;;;1.50;1.50;;;;;;;-146.29;77.26;53973.31;4427456;32;20578;-73
2021/01/23 02:06:33;;;;;;;1.60;1.60;;;;;;;-146.29;76.96;53928.66;4434572;32;20145;-72
2021/01/23 02:09:03;;;;;;;1.70;1.70;;;;;;;-146.29;76.70;53906.31;4456581;32;20064;-73
2021/01/23 02:11:28;;;;;;;1.40;1.40;;;;;;;-146.29;76.56;53881.97;4442283;32;20075;-72
2021/01/23 02:14:00;;;;;;;1.50;1.50;;;;;;;-146.29;76.69;53955.03;4450470;32;20064;-73
2021/01/23 02:16:29;;;;;;;1.50;1.50;;;;;;;-146.29;76.29;53918.50;4431668;32;20148;-72
2021/01/23 02:19:14;;;;;;;1.30;1.30;;;;;;;-146.29;76.35;53936.78;4445056;32;20076;-72
2021/01/23 02:21:51;;;;;;;1.50;1.50;;;;;;;-146.29;76.54;53877.91;4455225;32;21330;-72
2021/01/23 02:24:24;;;;;;;1.50;1.50;;;;;;;-146.29;76.28;53938.81;4468195;31;20573;-72
2021/01/23 02:27:12;;;;;;;1.73;1.67;;;;;;;-146.29;76.39;53894.16;4428912;32;20483;-73
2021/01/23 02:29:43;;;;;;;1.40;1.40;;;;;;;-146.29;76.32;53906.31;4429051;32;20218;-72
2021/01/23 02:32:09;;;;;;;1.45;1.45;;;;;;;-146.29;76.80;53932.72;4441873;32;20084;-73
2021/01/23 02:34:35;;;;;;;1.40;1.40;;;;;;;-146.29;76.51;53938.81;4428188;32;20089;-72
2021/01/23 02:37:00;;;;;;;1.30;1.30;;;;;;;-146.29;76.84;53902.28;4440241;32;20530;-72
2021/01/23 02:39:25;;;;;;;1.67;1.67;;;;;;;-146.29;76.96;53922.56;4433228;32;20142;-72
2021/01/23 02:41:51;;;;;;;1.50;1.50;;;;;;;-146.29;76.88;53910.37;4428029;32;20101;-73
2021/01/23 02:44:17;;;;;;;1.35;1.35;;;;;;;-146.29;76.79;53936.78;4432225;32;20549;-71
2021/01/23 02:46:42;;;;;;;1.40;1.40;;;;;;;-146.29;77.09;53942.87;4445759;32;20537;-72
2021/01/23 02:49:07;;;;;;;1.40;1.40;;;;;;;-146.29;76.95;53922.56;4434546;32;20159;-74
2021/01/23 02:51:43;;;;;;;2.12;2.03;;;;;;;-146.29;76.80;53924.59;4430346;32;20076;-72
2021/01/23 02:54:31;;;;;;;1.50;1.50;;;;;;;-146.29;76.51;53881.97;4446969;32;20186;-72
2021/01/23 02:56:57;;;;;;;1.55;1.55;;;;;;;-146.29;76.25;53918.50;4438308;32;20091;-72
2021/01/23 02:59:22;;;;;;;1.40;1.40;;;;;;;-146.29;76.02;53894.16;4434386;32;20509;-72
2021/01/23 03:01:48;;;;;;;1.50;1.50;;;;;;;-146.29;75.72;53914.44;4429848;32;20151;-72
2021/01/23 03:04:13;;;;;;;1.40;1.40;;;;;;;-146.29;75.75;53920.53;4432294;32;20455;-72
2021/01/23 03:06:38;;;;;;;1.30;1.30;;;;;;;-146.29;75.70;53904.28;4428385;32;20961;-72
2021/01/23 03:09:23;;;;;;;1.40;1.40;;;;;;;-146.29;75.54;53942.87;4430145;32;20096;-71
2021/01/23 03:11:49;;;;;;;1.48;1.48;;;;;;;-146.29;75.35;53938.81;4442108;32;20564;-72
2021/01/23 03:14:14;;;;;;;1.40;1.40;;;;;;;-146.29;75.46;53926.62;4432249;32;20095;-72
2021/01/23 03:16:48;;;;;;;1.50;1.50;;;;;;;-146.29;75.98;53942.87;4435785;32;20125;-72
2021/01/23 03:19:14;;;;;;;1.70;1.60;;;;;;;-146.29;75.79;53928.66;4438780;32;20057;-72
2021/01/23 03:21:39;;;;;;;1.55;1.55;;;;;;;-146.29;75.70;53924.59;4431628;32;20605;-73
2021/01/23 03:24:05;;;;;;;1.60;1.60;;;;;;;-146.29;76.10;53946.91;4427122;32;20657;-72
2021/01/23 03:26:31;;;;;;;1.55;1.55;;;;;;;-146.29;76.13;53910.37;4443876;32;20358;-72
2021/01/23 03:28:56;;;;;;;1.60;1.60;;;;;;;-146.29;76.27;53892.12;4432675;32;20057;-74
2021/01/23 03:31:22;;;;;;;1.35;1.35;;;;;;;-146.29;76.57;53942.87;4432442;32;20065;-72
2021/01/23 03:33:47;;;;;;;1.20;1.20;;;;;;;-146.29;76.82;53926.62;4428275;32;20080;-73
2021/01/23 03:36:13;;;;;;;1.40;1.40;;;;;;;-146.29;76.84;53896.19;4431035;32;20091;-72
2021/01/23 03:38:38;;;;;;;1.20;1.20;;;;;;;-146.29;77.17;53914.44;4433975;32;20522;-73
2021/01/23 03:41:03;;;;;;;1.30;1.30;;;;;;;-146.29;76.97;53918.50;4428561;32;20165;-71
2021/01/23 03:43:29;;;;;;;2.12;2.03;;;;;;;-146.29;77.09;53924.59;4425313;32;20332;-73
2021/01/23 03:45:54;;;;;;;1.40;1.40;;;;;;;-146.29;77.08;53894.16;4421631;32;20063;-73
2021/01/23 03:48:20;;;;;;;1.40;1.40;;;;;;;-146.29;77.24;53934.75;4430746;32;20191;-73
2021/01/23 03:50:45;;;;;;;1.70;1.60;;;;;;;-146.29;77.13;53906.31;4426605;32;20226;-72
2021/01/23 03:53:10;;;;;;;1.50;1.50;;;;;;;-146.29;77.12;53922.56;4428798;32;20635;-72
2021/01/23 03:55:37;;;;;;;1.50;1.50;;;;;;;-146.29;77.22;53934.75;4433592;32;20091;-72
2021/01/23 03:58:02;;;;;;;1.30;1.30;;;;;;;-146.29;77.49;53912.41;4444908;32;20746;-71
2021/01/23 04:00:28;;;;;;;1.30;1.30;;;;;;;-146.29;77.56;53959.09;4443954;32;20141;-73
2021/01/23 04:02:53;;;;;;;1.87;1.77;;;;;;;-146.29;77.43;53930.69;4429136;32;20086;-73
2021/01/23 04:05:19;;;;;;;1.30;1.30;;;;;;;-146.29;77.56;53902.28;4425483;32;20067;-72
2021/01/23 04:07:44;;;;;;;1.40;1.40;;;;;;;-146.29;77.54;53896.19;4436566;32;20091;-72
2021/01/23 04:10:10;;;;;;;1.50;1.50;;;;;;;-146.29;77.59;53888.06;4435686;32;20125;-72
2021/01/23 04:12:35;;;;;;;1.40;1.40;;;;;;;-146.29;77.68;53873.84;4434890;32;20083;-72
2021/01/23 04:15:01;;;;;;;1.40;1.40;;;;;;;-146.29;77.46;53950.97;4434154;32;20072;-72
2021/01/23 04:17:26;;;;;;;1.33;1.33;;;;;;;-146.29;77.83;53898.22;4433963;32;20517;-73
2021/01/23 04:19:52;;;;;;;1.30;1.30;;;;;;;-146.29;77.55;53928.66;4428410;32;20479;-72
2021/01/23 04:22:17;;;;;;;2.03;1.92;;;;;;;-146.29;77.60;53904.28;4431202;32;20593;-73
2021/01/23 04:24:42;;;;;;;1.35;1.35;;;;;;;-146.29;77.79;53908.34;4430620;32;20065;-74
2021/01/23 04:27:08;;;;;;;1.52;1.52;;;;;;;-146.29;77.71;53926.62;4429784;32;20580;-72
2021/01/23 04:29:33;;;;;;;1.50;1.50;;;;;;;-146.29;77.71;53971.28;4437122;32;20068;-73
2021/01/23 04:31:59;;;;;;;1.50;1.50;;;;;;;-146.29;77.85;53908.34;4433548;32;20076;-73
2021/01/23 04:34:24;;;;;;;1.40;1.40;;;;;;;-146.29;77.99;53904.28;4429959;32;20078;-71
2021/01/23 04:36:49;;;;;;;1.30;1.30;;;;;;;-146.29;77.68;53910.37;4424892;32;20264;-72
2021/01/23 04:39:16;;;;;;;1.40;1.40;;;;;;;-146.29;78.04;53873.84;4426063;32;20123;-72
2021/01/23 04:41:42;;;;;;;1.50;1.50;;;;;;;-146.29;77.96;53920.53;4432209;32;20858;-72
2021/01/23 04:44:07;;;;;;;1.90;1.80;;;;;;;-146.29;77.84;53930.69;4433931;32;20079;-72
2021/01/23 04:46:33;;;;;;;1.45;1.45;;;;;;;-146.29;78.01;53900.25;4428003;32;20072;-73
2021/01/23 04:48:58;;;;;;;1.60;1.60;;;;;;;-146.29;77.89;53898.22;4431718;32;20064;-72
2021/01/23 04:51:25;;;;;;;1.45;1.45;;;;;;;-146.29;77.56;53930.69;4436315;32;20194;-72
2021/01/23 04:53:51;;;;;;;1.40;1.40;;;;;;;-146.29;77.40;53910.37;4436290;32;20073;-72
2021/01/23 04:56:16;;;;;;;1.52;1.52;;;;;;;-146.29;77.13;53920.53;4425877;32;20069;-72
2021/01/23 04:58:42;;;;;;;1.30;1.30;;;;;;;-146.29;77.06;53888.06;4437243;32;20082;-73
2021/01/23 05:01:14;;;;;;;1.30;1.30;;;;;;;-146.29;76.91;53890.09;4432115;32;20103;-72
2021/01/23 05:03:55;;;;;;;1.40;1.40;;;;;;;-146.29;76.85;53900.25;4433516;32;20103;-74
2021/01/23 05:06:20;;;;;;;1.60;1.60;;;;;;;-146.29;76.65;53886.03;4441387;32;20597;-72
2021/01/23 05:08:46;;;;;;;1.37;1.37;;;;;;;-146.29;76.29;53902.28;4431662;32;20174;-72
2021/01/23 05:11:11;;;;;;;1.30;1.30;;;;;;;-146.29;76.06;53898.22;4437929;32;20457;-72
2021/01/23 05:13:37;;;;;;;1.40;1.40;;;;;;;-146.29;75.89;53884.00;4435293;32;20652;-72
2021/01/23 05:16:02;;;;;;;1.40;1.40;;;;;;;-146.29;75.76;53932.72;4450413;32;20082;-73
2021/01/23 05:18:28;;;;;;;1.58;1.58;;;;;;;-146.29;75.54;53910.37;4430652;32;20166;-72
2021/01/23 05:20:53;;;;;;;1.48;1.48;;;;;;;-146.29;75.80;53902.28;4435407;32;20510;-72
2021/01/23 05:23:26;;;;;;;1.50;1.50;;;;;;;-146.29;75.53;53873.84;4431437;32;20210;-72
2021/01/23 05:25:58;;;;;;;1.50;1.50;;;;;;;-146.29;75.56;53873.84;4433743;32;20087;-73
2021/01/23 05:28:27;;;;;;;;;;;;;;;-146.29;75.40;53920.53;4431896;32;20088;-72
2021/01/23 05:30:53;;;;;;;1.15;1.15;;;;;;;-146.29;75.06;53902.28;4460987;32;20253;-74
2021/01/23 05:36:40;;;;;;;1.50;1.50;;;;;;;-146.29;74.93;53902.28;4455104;32;20079;-72
2021/01/23 05:39:05;;;;;;;1.55;1.55;;;;;;;-146.29;74.98;53932.72;4448879;32;20076;-72
2021/01/23 05:41:31;;;;;;;1.55;1.55;;;;;;;-146.29;74.91;53896.19;4428265;32;20097;-72
2021/01/23 05:43:56;;;;;;;1.60;1.60;;;;;;;-146.29;74.64;53942.87;4433736;32;20084;-73
2021/01/23 05:46:28;;;;;;;2.08;1.98;;;;;;;-146.29;74.79;53910.37;4432877;32;20123;-73
2021/01/23 05:48:54;;;;;;;1.40;1.40;;;;;;;-146.29;74.72;53910.37;4462593;32;20073;-75
2021/01/23 05:51:19;;;;;;;1.60;1.60;;;;;;;-146.29;74.77;53906.31;4432661;32;20144;-73
2021/01/23 05:53:45;;;;;;;1.30;1.30;;;;;;;-146.29;75.09;53886.03;4436666;32;20585;-74
2021/01/23 05:56:10;;;;;;;1.40;1.40;;;;;;;-146.29;75.30;53900.25;4432090;32;20064;-72
2021/01/23 05:58:37;;;;;;;1.40;1.40;;;;;;;-146.29;75.59;53934.75;4429201;32;20100;-73
2021/01/23 06:01:04;;;;;;;1.67;1.67;;;;;;;-146.29;75.51;53894.16;4429897;32;20084;-73
2021/01/23 06:03:34;;;;;;;1.40;1.40;;;;;;;-146.29;75.87;53930.69;4430335;32;20578;-72
2021/01/23 06:06:00;;;;;;;1.40;1.40;;;;;;;-146.29;75.68;53912.41;4428296;32;20080;-72
2021/01/23 06:08:41;;;;;;;1.60;1.60;;;;;;;-146.29;75.70;53879.94;4447030;32;20157;-72
2021/01/23 06:11:19;;;;;;;1.40;1.40;;;;;;;-146.29;75.61;53918.50;4446872;32;20596;-73
2021/01/23 06:13:46;;;;;;;1.42;1.42;;;;;;;-146.29;75.80;53910.37;4459393;32;20586;-74
2021/01/23 06:16:34;;;;;;;1.50;1.50;;;;;;;-146.29;75.49;53920.53;4441512;32;20079;-74
2021/01/23 06:19:02;;;;;;;1.30;1.30;;;;;;;-146.29;75.63;53922.56;4471055;31;20337;-72
2021/01/23 06:21:43;;;;;;;1.60;1.60;;;;;;;-146.29;75.75;53906.31;4465301;31;20076;-73
2021/01/23 06:24:15;;;;;;;1.40;1.40;;;;;;;-146.29;75.73;53938.81;4453103;32;20088;-73
2021/01/23 06:26:53;;;;;;;;;;;;;;;-146.29;75.79;53894.16;4442668;32;20137;-73
2021/01/23 06:29:57;;;;;;;1.30;1.30;;;;;;;-146.29;75.66;53908.34;4469699;31;19956;-73
2021/01/23 06:32:22;;;;;;;1.40;1.40;;;;;;;-146.29;75.52;53910.37;4388469;32;20188;-74
2021/01/23 06:34:48;;;;;;;1.35;1.35;;;;;;;-146.29;75.51;53930.69;4443903;32;20068;-74
2021/01/23 06:37:27;;;;;;;1.50;1.50;;;;;;;-146.29;75.57;53861.69;4429135;32;20162;-73
2021/01/23 06:39:55;;;;;;;1.33;1.33;;;;;;;-146.29;75.49;53912.41;4429980;32;20114;-74
2021/01/23 06:42:21;;;;;;;1.50;1.50;;;;;;;-146.29;75.14;53902.28;4442198;32;20157;-74
2021/01/23 06:44:46;;;;;;;1.45;1.45;;;;;;;-146.29;75.42;53890.09;4420588;32;20064;-73
2021/01/23 06:47:15;;;;;;;1.50;1.50;;;;;;;-146.29;75.03;53906.31;4431118;32;20594;-73
2021/01/23 06:49:41;;;;;;;2.03;1.95;;;;;;;-146.29;74.88;53871.81;4430194;32;20087;-73
2021/01/23 06:52:07;;;;;;;1.40;1.40;;;;;;;-146.29;74.96;53906.31;4437945;32;20102;-73
2021/01/23 06:54:32;;;;;;;1.60;1.60;;;;;;;-146.29;74.98;53892.12;4421757;32;20166;-74
2021/01/23 06:56:58;;;;;;;1.30;1.30;;;;;;;-146.29;74.67;53894.16;4427888;32;20156;-75
2021/01/23 06:59:27;;;;;;;1.35;1.35;;;;;;;-146.29;74.90;53902.28;4420497;32;20076;-75
2021/01/23 07:02:13;;;;;;;1.50;1.50;;;;;;;-146.29;74.71;53900.25;4438663;32;20632;-75
2021/01/23 07:04:48;;;;;;;1.40;1.40;;;;;;;-146.29;74.89;53906.31;4424973;32;20076;-72
2021/01/23 07:07:14;;;;;;;1.80;1.70;;;;;;;-146.29;75.03;53932.72;4443526;32;20096;-73
2021/01/23 07:09:49;;;;;;;1.60;1.60;;;;;;;-146.29;74.89;53934.75;4434069;32;20588;-74
2021/01/23 07:12:54;;;;;;;1.50;1.50;;;;;;;-146.29;74.98;53938.81;4439208;32;20893;-74
2021/01/23 07:15:22;;;;;;;1.55;1.55;;;;;;;-146.29;75.37;53906.31;4437030;32;20083;-74
2021/01/23 07:17:49;;;;;;;2.25;2.15;;;;;;;-146.29;75.33;53892.12;4443864;32;20067;-73
2021/01/23 07:20:16;;;;;;;1.40;1.40;;;;;;;-146.29;74.98;53908.34;4415975;32;20072;-72
2021/01/23 07:22:42;;;;;;;1.45;1.45;;;;;;;-146.29;75.06;53924.59;4415462;32;20178;-72
2021/01/23 07:25:09;;;;;;;1.40;1.40;;;;;;;-146.29;75.06;53914.44;4430691;32;20067;-73
2021/01/23 07:27:35;;;;;;;1.50;1.50;;;;;;;-146.29;75.49;53914.44;4421699;32;20063;-73
2021/01/23 07:30:01;;;;;;;1.40;1.40;;;;;;;-146.29;75.53;53922.56;4418475;32;20595;-73
2021/01/23 07:32:36;;;;;;;1.40;1.40;;;;;;;-146.29;75.25;53892.12;4423261;32;20542;-72
2021/01/23 07:35:03;;;;;;;1.40;1.40;;;;;;;-146.29;75.19;53922.56;4442575;32;20129;-73
2021/01/23 07:37:41;;;;;;;1.65;1.65;;;;;;;-146.29;75.03;53894.16;4415866;32;20096;-73
2021/01/23 07:40:08;;;;;;;1.30;1.30;;;;;;;-146.29;75.30;53902.28;4431651;32;20071;-73
2021/01/23 07:42:33;;;;;;;1.40;1.40;;;;;;;-146.29;75.08;53912.41;4424153;32;20087;-74
2021/01/23 07:45:01;;;;;;;1.50;1.50;;;;;;;-146.29;75.31;53912.41;4421488;32;20794;-72
2021/01/23 07:47:26;;;;;;;1.45;1.45;;;;;;;-146.29;75.27;53904.28;4413914;32;20068;-73
2021/01/23 07:50:03;;;;;;;1.73;1.73;;;;;;;-146.29;75.33;53892.12;4431791;32;20142;-72
2021/01/23 07:52:28;;;;;;;1.30;1.30;;;;;;;-146.29;75.51;53902.28;4429977;32;20076;-72
2021/01/23 07:54:53;;;;;;;1.92;1.83;;;;;;;-146.29;75.19;53875.88;4419941;32;20581;-75
2021/01/23 07:57:19;;;;;;;1.70;1.70;;;;;;;-146.29;75.22;53886.03;4429035;32;20525;-72
2021/01/23 07:59:45;;;;;;;1.50;1.50;;;;;;;-146.29;75.24;53942.87;4417736;32;20115;-73
2021/01/23 08:02:10;;;;;;;3.30;3.20;;;;;;;-146.29;75.15;53930.69;4417617;32;20134;-72
2021/01/23 08:04:37;;;;;;;1.77;1.77;;;;;;;-146.29;75.12;53920.53;4420221;32;20179;-73
2021/01/23 08:07:15;;;;;;;1.60;1.60;;;;;;;-146.29;75.47;53896.19;4431497;32;20570;-73
2021/01/23 08:09:41;;;;;;;1.50;1.50;;;;;;;-146.29;75.53;53946.91;4431439;32;20084;-73
2021/01/23 08:12:18;;;;;;;1.67;1.67;;;;;;;-146.29;75.50;53881.97;4409295;32;20069;-73
2021/01/23 08:14:53;;;;;;;1.40;1.40;;;;;;;-146.29;75.54;53902.28;4411723;32;20068;-73
2021/01/23 08:17:19;;;;;;;1.60;1.60;;;;;;;-146.29;75.54;53910.37;4415671;32;20570;-71
2021/01/23 08:19:50;;;;;;;1.60;1.60;;;;;;;-146.29;75.83;53926.62;4423392;32;20082;-72
2021/01/23 08:22:16;;;;;;;1.33;1.33;;;;;;;-146.29;75.36;53914.44;4415124;32;20105;-71
2021/01/23 08:24:41;;;;;;;1.50;1.50;;;;;;;-146.29;75.61;53865.72;4415371;32;20100;-72
2021/01/23 08:27:17;;;;;;;2.35;1.90;;;;;;;-146.29;75.46;53853.56;4416850;32;20190;-72
2021/01/23 08:29:47;;;;;;;1.30;1.30;;;;;;;-146.29;75.35;53910.37;4435881;32;20717;-72
2021/01/23 08:32:12;;;;;;;1.50;1.50;;;;;;;-146.29;75.30;53881.97;4426915;32;20118;-73
2021/01/23 08:34:37;;;;;;;1.80;1.70;;;;;;;-146.29;75.43;53898.22;4423763;32;20656;-72
2021/01/23 08:37:03;;;;;;;1.52;1.52;;;;;;;-146.29;75.10;53904.28;4416232;32;20107;-72
2021/01/23 08:39:28;;;;;;;1.40;1.40;;;;;;;-146.29;75.04;53881.97;4416566;32;20207;-72
2021/01/23 08:41:54;;;;;;;1.83;1.83;;;;;;;-146.29;74.75;53896.19;4412842;32;20072;-72
2021/01/23 08:44:20;;;;;;;1.40;1.40;;;;;;;-146.29;74.46;53902.28;4414303;32;20083;-73
2021/01/23 08:46:45;;;;;;;1.40;1.40;;;;;;;-146.29;74.50;53894.16;4429768;32;20084;-71
2021/01/23 08:49:11;;;;;;;1.70;1.70;;;;;;;-146.29;74.50;53896.19;4417859;32;20065;-74
2021/01/23 08:51:37;;;;;;;1.60;1.60;;;;;;;-146.29;74.40;53861.69;4418889;32;20091;-73
2021/01/23 08:54:03;;;;;;;1.50;1.50;;;;;;;-146.29;74.58;53912.41;4420554;32;20197;-73
2021/01/23 08:56:29;;;;;;;1.60;1.60;;;;;;;-146.29;74.27;53942.87;4415730;32;20076;-72
2021/01/23 08:58:55;;;;;;;1.85;1.80;;;;;;;-146.29;74.65;53920.53;4413405;32;20160;-72
2021/01/23 09:01:20;;;;;;;1.50;1.50;;;;;;;-146.29;74.35;53886.03;4417296;32;20064;-71
2021/01/23 09:03:46;;;;;;;1.50;1.50;;;;;;;-146.29;74.29;53894.16;4425308;32;20068;-71
2021/01/23 09:06:11;;;;;;;1.50;1.50;;;;;;;-146.29;73.93;53953.00;4415858;32;20065;-72
2021/01/23 09:08:37;;;;;;;1.40;1.40;;;;;;;-146.29;73.44;53886.03;4424232;32;20072;-71
2021/01/23 09:11:02;;;;;;;1.55;1.55;;;;;;;-146.29;73.19;53914.44;4415561;32;20064;-72
2021/01/23 09:13:28;;;;;;;2.00;1.90;;;;;;;-146.29;72.85;53873.84;4423343;32;20068;-72
2021/01/23 09:15:54;;;;;;;1.60;1.60;;;;;;;-146.29;72.39;53900.25;4428832;32;20745;-72
2021/01/23 09:18:19;;;;;;;1.65;1.65;;;;;;;-146.29;71.87;53886.03;4429197;32;20613;-72
2021/01/23 09:20:45;;;;;;;1.40;1.40;;;;;;;-146.29;71.61;53908.34;4419889;32;20174;-72
2021/01/23 09:23:10;;;;;;;1.55;1.55;;;;;;;-146.29;71.04;53881.97;4418026;32;20475;-72
2021/01/23 09:25:36;;;;;;;1.60;1.60;;;;;;;-146.29;70.17;53877.91;4418039;32;20072;-73
2021/01/23 09:28:01;;;;;;;1.62;1.62;;;;;;;-146.29;69.52;53894.16;4418677;32;20068;-72
2021/01/23 09:30:26;;;;;;;1.70;1.70;;;;;;;-146.29;69.43;53898.22;4417505;32;20574;-73
2021/01/23 09:32:52;;;;;;;2.20;2.10;;;;;;;-146.29;68.93;53922.56;4418949;32;20071;-72
2021/01/23 09:35:17;;;;;;;1.52;1.52;;;;;;;-146.29;68.34;53892.12;4418732;32;20084;-72
2021/01/23 09:37:43;;;;;;;1.70;1.70;;;;;;;-146.29;68.29;53890.09;4413688;32;20069;-73
2021/01/23 09:40:08;;;;;;;1.70;1.70;;;;;;;-146.29;68.21;53873.84;4418297;32;20064;-72
2021/01/23 09:42:34;;;;;;;1.70;1.70;;;;;;;-146.29;67.89;53898.22;4419494;32;20545;-71
2021/01/23 09:44:59;;;;;;;1.70;1.70;;;;;;;-146.29;67.67;53912.41;4428326;32;20076;-74
2021/01/23 09:47:25;;;;;;;1.80;1.80;;;;;;;-146.29;67.17;53869.78;4412094;32;20072;-73
2021/01/23 09:49:50;;;;;;;1.70;1.70;;;;;;;-146.29;66.15;53902.28;4427064;32;20083;-72
2021/01/23 09:52:15;;;;;;;1.73;1.73;;;;;;;-146.29;65.88;53890.09;4422085;32;20171;-72
2021/01/23 09:54:41;;;;;;;1.70;1.70;;;;;;;-146.29;64.93;53906.31;4428582;32;20068;-73
2021/01/23 09:57:06;;;;;;;1.65;1.65;;;;;;;-146.29;64.60;53888.06;4411397;32;20289;-72
2021/01/23 09:59:32;;;;;;;1.80;1.80;;;;;;;-146.29;64.03;53865.72;4415563;32;20092;-73
2021/01/23 10:01:58;;;;;;;1.70;1.70;;;;;;;-146.29;63.36;53894.16;4419065;32;20083;-73
2021/01/23 10:04:24;;;;;;;2.60;2.50;;;;;;;-146.29;62.94;53855.59;4424567;32;20213;-74
2021/01/23 10:06:49;;;;;;;1.80;1.80;;;;;;;-146.29;63.00;53892.12;4410827;32;20162;-73
2021/01/23 10:09:14;;;;;;;1.80;1.80;;;;;;;-146.29;62.74;53865.72;4406868;32;20061;-72
2021/01/23 10:11:40;;;;;;;2.17;2.08;;;;;;;-146.29;62.74;53904.28;4414938;32;20091;-72
2021/01/23 10:14:05;;;;;;;1.70;1.70;;;;;;;-146.29;62.58;53904.28;4429956;32;20073;-73
2021/01/23 10:16:31;;;;;;;2.00;1.90;;;;;;;-146.29;62.81;53898.22;4428878;32;20555;-71
2021/01/23 10:18:56;;;;;;;1.70;1.70;;;;;;;-146.29;61.95;53875.88;4426576;32;20079;-73
2021/01/23 10:21:21;;;;;;;1.80;1.80;;;;;;;-146.29;62.27;53932.72;4433212;32;21012;-74
2021/01/23 10:23:47;;;;;;;1.65;1.65;;;;;;;-146.29;62.70;53873.84;4426368;32;20088;-72
2021/01/23 10:26:12;;;;;;;1.80;1.80;;;;;;;-146.29;62.03;53884.00;4429001;32;20547;-72
2021/01/23 10:28:38;;;;;;;2.00;1.90;;;;;;;-146.29;61.83;53902.28;4439519;32;20076;-72
2021/01/23 10:31:03;;;;;;;1.80;1.80;;;;;;;-146.29;60.42;53914.44;4433414;32;20810;-74
2021/01/23 10:33:28;;;;;;;2.15;2.05;;;;;;;-146.29;59.29;53900.25;4427000;32;20179;-74
2021/01/23 10:35:54;;;;;;;1.98;1.87;;;;;;;-146.29;58.37;53869.78;4431955;32;20069;-73
2021/01/23 10:38:19;;;;;;;2.00;1.90;;;;;;;-146.29;58.40;53881.97;4417960;32;20166;-73
2021/01/23 10:40:45;;;;;;;2.20;2.10;;;;;;;-146.29;57.33;53884.00;4434298;32;20075;-74
2021/01/23 10:43:11;;;;;;;2.00;1.90;;;;;;;-146.29;56.76;53910.37;4423073;32;20577;-73
2021/01/23 10:45:36;;;;;;;2.20;2.10;;;;;;;-146.29;56.57;53845.44;4443973;32;20169;-74
2021/01/23 10:48:02;;;;;;;2.15;2.05;;;;;;;-146.29;56.79;53881.97;4438641;32;20076;-74
2021/01/23 10:50:27;;;;;;;1.90;1.80;;;;;;;-146.29;55.87;53934.75;4426334;32;20737;-74
2021/01/23 10:52:53;;;;;;;2.10;2.00;;;;;;;-146.29;56.11;53906.31;4428449;32;20069;-75
2021/01/23 10:55:18;;;;;;;2.00;1.90;;;;;;;-146.29;55.38;53926.62;4433085;32;20079;-72
2021/01/23 10:57:44;;;;;;;2.10;2.00;;;;;;;-146.29;55.48;53914.44;4425987;32;20092;-74
2021/01/23 11:00:10;;;;;;;2.10;2.00;;;;;;;-146.29;55.74;53877.91;4420782;32;20063;-74
2021/01/23 11:02:39;;;;;;;2.25;2.15;;;;;;;-146.29;54.61;53896.19;4427071;32;20156;-73
2021/01/23 11:05:05;;;;;;;2.12;2.03;;;;;;;-146.29;54.47;53906.31;4423762;32;20110;-74
2021/01/23 11:07:31;;;;;;;2.15;2.05;;;;;;;-146.29;55.12;53888.06;4428031;32;20073;-73
2021/01/23 11:09:56;;;;;;;2.10;2.00;;;;;;;-146.29;54.34;53892.12;4427327;32;20345;-73
2021/01/23 11:12:22;;;;;;;2.10;2.00;;;;;;;-146.29;54.83;53914.44;4430862;32;20531;-73
2021/01/23 11:14:47;;;;;;;2.10;2.00;;;;;;;-146.29;54.37;53894.16;4432858;32;20680;-73
2021/01/23 11:17:13;;;;;;;2.10;2.00;;;;;;;-146.29;53.50;53886.03;4428406;32;20489;-73
2021/01/23 11:19:38;;;;;;;2.08;1.98;;;;;;;-146.29;54.05;53930.69;4427272;32;20087;-71